Time;durP1;ratioP1;P1;durP2;ratioP2;P2;SDS_P1;SDS_P2;PMS_P1;PMS_P2;Temp;Humidity;BMP_temperature;BMP_pressure;BME280_temperature;BME280_humidity;BME280_pressure;Samples;Min_cycle;Max_cycle;Signal;HPM_P1;HPM_P2
2021/07/03 00:00:38;;;;;;;;;;;;;;;20.92;53.89;99056.50;5073525;28;940;-60
2021/07/03 00:03:04;;;;;;;;;;;;;;;20.99;54.01;99049.69;5073395;28;821;-60
2021/07/03 00:05:31;;;;;;;;;;;;;;;21.01;53.81;99055.59;5073389;28;810;-61
2021/07/03 00:07:57;;;;;;;;;;;;;;;21.03;53.76;99067.13;5073332;28;846;-60
2021/07/03 00:10:24;;;;;;;;;;;;;;;20.97;54.15;99063.47;5073326;28;845;-61
2021/07/03 00:12:50;;;;;;;;;;;;;;;20.93;53.94;99065.72;5073371;28;889;-60
2021/07/03 00:15:21;;;;;;;;;;;;;;;20.89;54.35;99057.50;5073187;28;1964;-60
2021/07/03 00:17:51;;;;;;;;;;;;;;;20.91;54.06;99051.38;5073112;28;912;-60
2021/07/03 00:20:18;;;;;;;;;;;;;;;20.93;53.79;99057.28;5073043;28;838;-61
2021/07/03 00:22:45;;;;;;;;;;;;;;;20.85;54.15;99062.56;5073048;28;810;-60
2021/07/03 00:25:13;;;;;;;;;;;;;;;20.82;54.25;99059.97;5072496;28;1272;-60
2021/07/03 00:27:39;;;;;;;;;;;;;;;20.80;54.29;99060.44;5072911;28;830;-60
2021/07/03 00:30:07;;;;;;;;;;;;;;;20.80;53.74;99043.59;5072755;28;942;-61
2021/07/03 00:32:34;;;;;;;;;;;;;;;20.89;53.54;99056.72;5072894;28;865;-60
2021/07/03 00:35:01;;;;;;;;;;;;;;;20.94;53.49;99036.38;5072791;28;1955;-61
2021/07/03 00:37:28;;;;;;;;;;;;;;;20.94;53.36;99030.75;5071943;28;905;-60
2021/07/03 00:39:55;;;;;;;;;;;;;;;20.90;53.46;99030.97;5072635;28;881;-61
2021/07/03 00:42:22;;;;;;;;;;;;;;;20.85;53.52;99042.16;5072913;28;853;-61
2021/07/03 00:44:47;;;;;;;;;;;;;;;20.94;53.50;99033.56;5072623;28;893;-61
2021/07/03 00:47:14;;;;;;;;;;;;;;;20.97;52.81;99046.59;5072458;28;869;-60
2021/07/03 00:49:41;;;;;;;;;;;;;;;20.89;53.10;99045.47;5072641;28;819;-60
2021/07/03 00:52:08;;;;;;;;;;;;;;;20.92;53.00;99027.66;5072418;28;833;-60
2021/07/03 00:54:36;;;;;;;;;;;;;;;20.92;53.19;99030.47;5072283;28;901;-61
2021/07/03 00:57:04;;;;;;;;;;;;;;;20.89;53.00;99023.81;5072194;28;1939;-61
2021/07/03 00:59:37;;;;;;;;;;;;;;;20.91;53.20;99034.53;5072396;28;839;-60
2021/07/03 01:02:04;;;;;;;;;;;;;;;20.90;52.84;99030.19;5072745;28;849;-61
2021/07/03 01:04:31;;;;;;;;;;;;;;;20.89;53.03;99035.03;5072437;28;857;-61
2021/07/03 01:06:57;;;;;;;;;;;;;;;20.87;53.11;99028.34;5073143;28;806;-61
2021/07/03 01:09:24;;;;;;;;;;;;;;;20.84;53.34;99030.13;5072520;28;806;-60
2021/07/03 01:11:51;;;;;;;;;;;;;;;20.78;53.73;99029.28;5072189;28;826;-61
2021/07/03 01:14:19;;;;;;;;;;;;;;;20.60;54.53;99017.06;5072410;28;833;-60
2021/07/03 01:16:47;;;;;;;;;;;;;;;20.43;55.62;99016.03;5072567;28;1885;-60
2021/07/03 01:19:14;;;;;;;;;;;;;;;20.31;55.58;99015.13;5072137;28;822;-61
2021/07/03 01:21:46;;;;;;;;;;;;;;;20.32;55.57;99015.91;5072220;28;814;-60
2021/07/03 01:24:14;;;;;;;;;;;;;;;20.27;55.99;99008.94;5071497;28;1507;-61
2021/07/03 01:26:42;;;;;;;;;;;;;;;20.16;56.37;99001.13;5071910;28;881;-61
2021/07/03 01:29:09;;;;;;;;;;;;;;;20.05;56.51;99009.38;5071895;28;823;-61
2021/07/03 01:31:38;;;;;;;;;;;;;;;19.93;56.98;99013.28;5087471;28;857;-60
2021/07/03 01:34:05;;;;;;;;;;;;;;;19.87;57.13;99007.59;5071719;28;794;-61
2021/07/03 01:36:32;;;;;;;;;;;;;;;19.94;56.71;99012.78;5071704;28;1977;-60
2021/07/03 01:38:58;;;;;;;;;;;;;;;20.03;56.15;99027.94;5071599;28;941;-61
2021/07/03 01:41:24;;;;;;;;;;;;;;;20.15;55.65;99019.22;5071717;28;931;-61
2021/07/03 01:43:51;;;;;;;;;;;;;;;20.15;55.74;99024.84;5071790;28;882;-60
2021/07/03 01:46:17;;;;;;;;;;;;;;;20.16;55.41;99034.00;5071870;28;925;-60
2021/07/03 01:48:44;;;;;;;;;;;;;;;20.23;55.40;99028.00;5071563;28;909;-60
2021/07/03 01:51:10;;;;;;;;;;;;;;;20.24;55.28;99032.34;5071559;28;916;-60
2021/07/03 01:53:37;;;;;;;;;;;;;;;20.03;55.81;99039.16;5071525;28;822;-60
2021/07/03 01:56:03;;;;;;;;;;;;;;;19.92;56.43;99051.75;5071485;28;1885;-60
2021/07/03 01:58:31;;;;;;;;;;;;;;;19.96;56.26;99057.16;5071731;28;873;-60
2021/07/03 02:01:00;;;;;;;;;;;;;;;19.95;56.47;99041.59;5086978;28;706;-60
2021/07/03 02:03:27;;;;;;;;;;;;;;;19.91;56.05;99052.25;5071763;28;897;-61
2021/07/03 02:05:53;;;;;;;;;;;;;;;19.96;55.97;99054.38;5071373;28;876;-60
2021/07/03 02:08:20;;;;;;;;;;;;;;;19.97;55.83;99053.09;5071427;28;845;-60
2021/07/03 02:10:47;;;;;;;;;;;;;;;19.97;55.89;99061.50;5071436;28;884;-60
2021/07/03 02:13:14;;;;;;;;;;;;;;;19.93;55.78;99052.53;5071592;28;876;-60
2021/07/03 02:15:40;;;;;;;;;;;;;;;19.90;55.64;99067.53;5071375;28;1886;-61
2021/07/03 02:18:07;;;;;;;;;;;;;;;19.85;56.06;99062.59;5071316;28;846;-60
2021/07/03 02:20:34;;;;;;;;;;;;;;;19.67;56.63;99058.72;5071330;28;865;-62
2021/07/03 02:23:00;;;;;;;;;;;;;;;19.63;56.26;99069.34;5071206;28;869;-60
2021/07/03 02:25:28;;;;;;;;;;;;;;;19.54;56.71;99073.00;5071021;28;1247;-60
2021/07/03 02:27:54;;;;;;;;;;;;;;;19.49;56.33;99068.06;5071184;28;798;-60
2021/07/03 02:30:22;;;;;;;;;;;;;;;19.39;56.92;99080.59;5071138;28;810;-60
2021/07/03 02:32:49;;;;;;;;;;;;;;;19.36;56.48;99078.78;5071090;28;901;-61
2021/07/03 02:35:16;;;;;;;;;;;;;;;19.44;56.32;99079.16;5071034;28;1961;-60
2021/07/03 02:37:43;;;;;;;;;;;;;;;19.42;56.40;99076.84;5071158;28;964;-59
2021/07/03 02:40:12;;;;;;;;;;;;;;;19.38;56.12;99073.47;5071360;28;893;-60
2021/07/03 02:42:38;;;;;;;;;;;;;;;19.36;56.35;99071.13;5071028;28;1053;-60
2021/07/03 02:45:06;;;;;;;;;;;;;;;19.29;56.74;99073.56;5071040;28;814;-59
2021/07/03 02:47:36;;;;;;;;;;;;;;;19.21;57.05;99073.16;5071096;28;837;-60
2021/07/03 02:50:04;;;;;;;;;;;;;;;19.13;57.45;99075.53;5070845;28;995;-59
2021/07/03 02:52:32;;;;;;;;;;;;;;;18.95;58.29;99072.88;5070949;28;881;-60
2021/07/03 02:54:59;;;;;;;;;;;;;;;19.00;57.60;99077.81;5070933;28;865;-59
2021/07/03 02:57:26;;;;;;;;;;;;;;;19.04;58.06;99081.22;5070894;28;1949;-59
2021/07/03 02:59:51;;;;;;;;;;;;;;;18.92;58.76;99093.44;5072409;28;881;-59
2021/07/03 03:02:17;;;;;;;;;;;;;;;18.85;59.08;99099.41;5074488;28;850;-60
2021/07/03 03:04:44;;;;;;;;;;;;;;;18.83;59.42;99093.50;5074565;28;837;-59
2021/07/03 03:07:11;;;;;;;;;;;;;;;18.86;59.31;99093.31;5074419;28;826;-59
2021/07/03 03:09:37;;;;;;;;;;;;;;;18.87;59.56;99091.28;5074413;28;881;-60
2021/07/03 03:12:04;;;;;;;;;;;;;;;18.95;59.09;99100.88;5074321;28;1010;-60
2021/07/03 03:14:31;;;;;;;;;;;;;;;19.05;58.87;99107.19;5074420;28;845;-59
2021/07/03 03:16:57;;;;;;;;;;;;;;;19.08;59.24;99104.22;5074128;28;1917;-60
2021/07/03 03:19:24;;;;;;;;;;;;;;;19.15;59.38;99101.03;5074285;28;894;-60
2021/07/03 03:21:51;;;;;;;;;;;;;;;19.35;58.68;99099.63;5074063;28;877;-60
2021/07/03 03:24:18;;;;;;;;;;;;;;;19.63;58.30;99107.78;5074076;28;1371;-59
2021/07/03 03:26:44;;;;;;;;;;;;;;;19.90;57.51;99101.16;5074090;28;913;-60
2021/07/03 03:29:10;;;;;;;;;;;;;;;20.31;56.23;99104.91;5074112;28;889;-60
2021/07/03 03:31:37;;;;;;;;;;;;;;;20.90;54.16;99103.97;5074132;28;954;-60
2021/07/03 03:34:04;;;;;;;;;;;;;;;21.27;53.97;99113.88;5074068;28;814;-60
2021/07/03 03:36:31;;;;;;;;;;;;;;;21.43;53.71;99104.91;5073862;28;1914;-60
2021/07/03 03:38:58;;;;;;;;;;;;;;;21.60;53.21;99105.84;5073895;28;814;-60
2021/07/03 03:41:23;;;;;;;;;;;;;;;21.76;52.71;99109.31;5073858;28;853;-60
2021/07/03 03:43:52;;;;;;;;;;;;;;;21.71;54.07;99115.69;5073793;28;853;-60
2021/07/03 03:46:18;;;;;;;;;;;;;;;21.51;54.58;99116.50;5074081;28;834;-60
2021/07/03 03:48:45;;;;;;;;;;;;;;;21.35;54.80;99118.56;5073814;28;822;-60
2021/07/03 03:51:12;;;;;;;;;;;;;;;21.26;55.50;99123.59;5073711;28;851;-60
2021/07/03 03:53:38;;;;;;;;;;;;;;;21.28;55.20;99127.44;5073730;28;845;-60
2021/07/03 03:56:05;;;;;;;;;;;;;;;21.36;55.32;99117.31;5073615;28;1889;-59
2021/07/03 03:58:31;;;;;;;;;;;;;;;21.47;55.13;99113.13;5073744;28;834;-60
2021/07/03 04:00:58;;;;;;;;;;;;;;;21.50;54.69;99114.94;5073578;28;814;-60
2021/07/03 04:03:24;;;;;;;;;;;;;;;21.39;54.73;99116.31;5073545;28;976;-61
2021/07/03 04:05:51;;;;;;;;;;;;;;;21.34;54.81;99117.03;5073331;28;862;-61
2021/07/03 04:08:17;;;;;;;;;;;;;;;21.28;54.41;99115.44;5073511;28;900;-61
2021/07/03 04:10:45;;;;;;;;;;;;;;;21.17;55.10;99118.88;5072526;28;845;-60
2021/07/03 04:13:11;;;;;;;;;;;;;;;21.00;55.32;99113.06;5073418;28;900;-60
2021/07/03 04:15:37;;;;;;;;;;;;;;;20.80;55.05;99111.78;5073331;28;1890;-60
2021/07/03 04:18:04;;;;;;;;;;;;;;;20.70;55.72;99101.16;5073439;28;892;-61
2021/07/03 04:20:31;;;;;;;;;;;;;;;20.59;55.63;99096.19;5073446;28;795;-61
2021/07/03 04:22:57;;;;;;;;;;;;;;;20.60;55.49;99098.47;5073228;28;798;-60
2021/07/03 04:25:25;;;;;;;;;;;;;;;20.76;55.45;99094.38;5073060;28;1447;-60
2021/07/03 04:27:52;;;;;;;;;;;;;;;21.10;54.40;99089.19;5073291;28;802;-60
2021/07/03 04:30:18;;;;;;;;;;;;;;;21.14;54.02;99088.94;5072984;28;856;-61
2021/07/03 04:32:45;;;;;;;;;;;;;;;20.99;54.33;99094.63;5073680;28;766;-61
2021/07/03 04:35:12;;;;;;;;;;;;;;;20.84;54.39;99096.75;5072848;28;1909;-61
2021/07/03 04:37:39;;;;;;;;;;;;;;;20.70;55.03;99101.16;5073510;28;778;-60
2021/07/03 04:40:06;;;;;;;;;;;;;;;20.79;54.75;99096.19;5072798;28;822;-60
2021/07/03 04:42:33;;;;;;;;;;;;;;;20.97;54.00;99100.78;5073412;28;763;-60
2021/07/03 04:44:59;;;;;;;;;;;;;;;21.07;54.43;99104.19;5072658;28;818;-60
2021/07/03 04:47:26;;;;;;;;;;;;;;;21.41;53.75;99107.41;5072523;28;872;-60
2021/07/03 04:49:53;;;;;;;;;;;;;;;21.26;53.78;99104.69;5072607;28;877;-61
2021/07/03 04:52:19;;;;;;;;;;;;;;;20.74;54.31;99102.50;5072458;28;822;-60
2021/07/03 04:54:46;;;;;;;;;;;;;;;20.33;55.97;99105.22;5072409;28;841;-61
2021/07/03 04:57:12;;;;;;;;;;;;;;;20.03;57.03;99109.28;5072324;28;1886;-60
2021/07/03 04:59:40;;;;;;;;;;;;;;;20.06;57.26;99106.28;5072272;28;978;-60
2021/07/03 05:02:08;;;;;;;;;;;;;;;20.76;55.77;99104.81;5072252;28;821;-60
2021/07/03 05:04:33;;;;;;;;;;;;;;;21.63;54.56;99104.09;5072500;28;790;-60
2021/07/03 05:15:20;;;;;;;;;;;;;;;24.15;47.43;99108.75;5030404;28;1971;-60
2021/07/03 05:17:45;;;;;;;;;;;;;;;25.21;46.34;99104.22;5032077;28;946;-60
2021/07/03 05:20:12;;;;;;;;;;;;;;;26.28;43.69;99106.34;5032105;28;835;-60
2021/07/03 05:22:39;;;;;;;;;;;;;;;26.40;44.41;99100.59;5031626;28;981;-60
2021/07/03 05:25:06;;;;;;;;;;;;;;;26.93;42.72;99103.94;5032103;28;834;-61
2021/07/03 05:27:32;;;;;;;;;;;;;;;26.71;41.07;99095.66;5031982;28;882;-60
2021/07/03 05:29:59;;;;;;;;;;;;;;;27.27;40.76;99095.78;5032000;28;909;-60
2021/07/03 05:32:25;;;;;;;;;;;;;;;28.17;39.04;99098.63;5032170;28;877;-60
2021/07/03 05:34:52;;;;;;;;;;;;;;;28.71;38.21;99092.47;5032136;28;846;-60
2021/07/03 05:37:18;;;;;;;;;;;;;;;28.93;37.20;99099.03;5032227;28;1910;-60
2021/07/03 05:39:45;;;;;;;;;;;;;;;27.94;37.96;99107.50;5031954;28;888;-60
2021/07/03 05:42:11;;;;;;;;;;;;;;;27.19;41.06;99103.34;5032590;28;779;-59
2021/07/03 05:44:38;;;;;;;;;;;;;;;26.94;42.07;99101.84;5031649;28;845;-60
2021/07/03 05:47:04;;;;;;;;;;;;;;;27.58;40.29;99104.16;5031784;28;889;-60
2021/07/03 05:49:31;;;;;;;;;;;;;;;28.07;39.85;99104.69;5031619;28;928;-59
2021/07/03 05:51:57;;;;;;;;;;;;;;;28.64;38.32;99100.91;5031662;28;810;-59
2021/07/03 05:54:24;;;;;;;;;;;;;;;28.66;38.56;99098.28;5031818;28;925;-59
2021/07/03 05:56:50;;;;;;;;;;;;;;;28.64;38.29;99092.38;5030245;28;1894;-60
2021/07/03 05:59:17;;;;;;;;;;;;;;;29.44;37.46;99098.00;5031582;28;911;-59
2021/07/03 06:01:43;;;;;;;;;;;;;;;29.98;35.89;99099.38;5031573;28;838;-60
2021/07/03 06:04:10;;;;;;;;;;;;;;;30.19;35.67;99102.22;5031527;28;818;-59
2021/07/03 06:06:37;;;;;;;;;;;;;;;30.40;34.87;99107.16;5031443;28;894;-59
2021/07/03 06:09:03;;;;;;;;;;;;;;;30.71;34.52;99096.75;5031451;28;958;-60
2021/07/03 06:11:29;;;;;;;;;;;;;;;29.85;34.33;99093.72;5031325;28;930;-60
2021/07/03 06:26:57;;;;;;;;;;;;;;;30.23;35.29;99101.88;5011648;28;633;-59
2021/07/03 06:29:23;;;;;;;;;;;;;;;29.90;36.37;99104.25;5011555;28;831;-59
2021/07/03 06:31:49;;;;;;;;;;;;;;;29.15;37.22;99099.94;5011487;28;842;-60
2021/07/03 06:34:16;;;;;;;;;;;;;;;29.28;37.13;99099.94;5012156;28;881;-59
2021/07/03 06:36:42;;;;;;;;;;;;;;;29.34;38.03;99103.41;5015319;28;1910;-59
2021/07/03 06:39:09;;;;;;;;;;;;;;;28.70;38.75;99110.88;5015242;28;902;-60
2021/07/03 06:41:35;;;;;;;;;;;;;;;27.76;39.77;99096.91;5015193;28;853;-60
2021/07/03 06:44:01;;;;;;;;;;;;;;;27.61;39.11;99103.06;5015234;28;866;-59
2021/07/03 06:46:28;;;;;;;;;;;;;;;27.78;39.43;99100.75;5015151;28;818;-60
2021/07/03 06:48:55;;;;;;;;;;;;;;;27.70;40.36;99102.69;5015077;28;992;-60
2021/07/03 06:51:20;;;;;;;;;;;;;;;27.56;40.74;99109.59;5034883;28;811;-60
2021/07/03 06:53:47;;;;;;;;;;;;;;;27.66;40.92;99107.91;5034755;28;839;-59
2021/07/03 06:56:13;;;;;;;;;;;;;;;28.02;40.25;99111.25;5034700;28;1882;-60
2021/07/03 06:58:39;;;;;;;;;;;;;;;28.44;37.98;99116.47;5034742;28;885;-59
2021/07/03 07:01:06;;;;;;;;;;;;;;;29.20;37.02;99116.13;5034583;28;1004;-59
2021/07/03 07:03:32;;;;;;;;;;;;;;;29.85;36.08;99107.97;5034963;28;838;-60
2021/07/03 07:05:59;;;;;;;;;;;;;;;28.67;37.58;99111.94;5034592;28;909;-60
2021/07/03 07:08:25;;;;;;;;;;;;;;;28.75;38.63;99106.38;5034608;28;900;-60
2021/07/03 07:10:52;;;;;;;;;;;;;;;29.21;38.02;99109.09;5034523;28;861;-60
2021/07/03 07:13:18;;;;;;;;;;;;;;;30.14;36.78;99103.13;5034871;28;905;-59
2021/07/03 07:15:45;;;;;;;;;;;;;;;30.78;36.23;99113.16;5034229;28;1885;-60
2021/07/03 07:18:12;;;;;;;;;;;;;;;32.03;34.77;99093.91;5034731;28;811;-60
2021/07/03 07:20:39;;;;;;;;;;;;;;;32.58;32.81;99101.16;5034395;28;873;-60
2021/07/03 07:23:04;;;;;;;;;;;;;;;32.29;33.28;99109.16;5034282;28;853;-60
2021/07/03 07:25:31;;;;;;;;;;;;;;;31.96;33.48;99106.03;5034169;28;1414;-60
2021/07/03 07:27:57;;;;;;;;;;;;;;;31.71;33.84;99095.16;5034298;28;806;-60
2021/07/03 07:30:24;;;;;;;;;;;;;;;31.61;33.10;99094.19;5034200;28;826;-60
2021/07/03 07:32:50;;;;;;;;;;;;;;;31.33;33.72;99097.88;5034233;28;850;-60
2021/07/03 07:35:17;;;;;;;;;;;;;;;30.87;34.66;99101.25;5034051;28;1902;-60
2021/07/03 07:37:44;;;;;;;;;;;;;;;30.57;35.14;99095.31;5034209;28;834;-61
2021/07/03 07:40:11;;;;;;;;;;;;;;;30.50;35.21;99105.34;5033875;28;882;-60
2021/07/03 07:42:38;;;;;;;;;;;;;;;30.59;34.74;99098.38;5034387;28;838;-61
2021/07/03 07:45:04;;;;;;;;;;;;;;;30.79;33.35;99108.19;5033795;28;865;-60
2021/07/03 07:47:31;;;;;;;;;;;;;;;30.33;34.62;99098.00;5034020;28;858;-60
2021/07/03 07:49:58;;;;;;;;;;;;;;;30.75;34.86;99105.72;5034047;28;818;-60
2021/07/03 07:52:25;;;;;;;;;;;;;;;30.63;34.97;99102.41;5034054;28;866;-60
2021/07/03 07:54:52;;;;;;;;;;;;;;;30.87;35.38;99094.78;5034462;28;771;-60
2021/07/03 07:57:21;;;;;;;;;;;;;;;31.21;34.67;99090.97;5033710;28;1951;-60
2021/07/03 07:59:48;;;;;;;;;;;;;;;31.68;33.84;99101.22;5033541;28;880;-60
2021/07/03 08:02:15;;;;;;;;;;;;;;;31.86;34.64;99090.81;5033543;28;807;-60
2021/07/03 08:04:41;;;;;;;;;;;;;;;31.63;32.40;99102.94;5033460;28;815;-60
2021/07/03 08:07:08;;;;;;;;;;;;;;;30.85;33.66;99106.72;5033789;28;814;-60
2021/07/03 08:09:35;;;;;;;;;;;;;;;30.37;34.19;99109.06;5033725;28;815;-60
2021/07/03 08:12:01;;;;;;;;;;;;;;;30.59;34.35;99115.50;5033504;28;1006;-60
2021/07/03 08:14:27;;;;;;;;;;;;;;;30.31;34.45;99108.44;5033697;28;834;-60
2021/07/03 08:29:19;;;;;;;;;;;;;;;29.44;36.39;99120.78;5063487;28;1169;-60
2021/07/03 08:31:46;;;;;;;;;;;;;;;29.34;36.21;99122.56;5071618;28;1524;-60
2021/07/03 08:34:13;;;;;;;;;;;;;;;29.19;36.92;99129.59;5072737;28;905;-60
2021/07/03 08:36:39;;;;;;;;;;;;;;;29.27;35.67;99124.75;5072936;28;1890;-61
2021/07/03 08:39:06;;;;;;;;;;;;;;;29.17;35.59;99132.22;5072675;28;897;-61
2021/07/03 08:41:33;;;;;;;;;;;;;;;29.32;36.44;99125.97;5072729;28;909;-60
2021/07/03 08:43:59;;;;;;;;;;;;;;;29.32;36.28;99128.81;5072603;28;822;-61
2021/07/03 08:46:25;;;;;;;;;;;;;;;29.51;36.54;99123.72;5071384;28;1626;-60
2021/07/03 08:48:55;;;;;;;;;;;;;;;29.14;36.31;99121.16;5072509;28;912;-60
2021/07/03 08:51:22;;;;;;;;;;;;;;;29.09;35.78;99112.19;5072449;28;822;-60
2021/07/03 08:53:49;;;;;;;;;;;;;;;29.08;36.46;99112.72;5072386;28;944;-61
2021/07/03 08:56:16;;;;;;;;;;;;;;;29.42;36.39;99117.72;5072280;28;1890;-60
2021/07/03 08:58:43;;;;;;;;;;;;;;;29.58;35.87;99108.06;5071677;28;948;-60
2021/07/03 09:01:09;;;;;;;;;;;;;;;29.50;35.59;99119.34;5072546;28;947;-60
2021/07/03 09:03:36;;;;;;;;;;;;;;;29.40;36.63;99112.56;5072343;28;992;-60
2021/07/03 09:06:07;;;;;;;;;;;;;;;29.73;36.78;99110.34;5072277;28;853;-60
2021/07/03 09:08:33;;;;;;;;;;;;;;;29.83;35.68;99114.25;5054017;28;1239;-60
2021/07/03 09:11:02;;;;;;;;;;;;;;;30.22;35.18;99106.06;5072114;28;826;-60
2021/07/03 09:13:29;;;;;;;;;;;;;;;30.19;37.03;99113.59;5072055;28;903;-60
2021/07/03 09:15:55;;;;;;;;;;;;;;;30.31;34.43;99105.59;5071938;28;1886;-61
2021/07/03 09:18:25;;;;;;;;;;;;;;;30.13;34.79;99115.84;5072038;28;1004;-60
2021/07/03 09:20:53;;;;;;;;;;;;;;;30.05;34.90;99106.47;5071853;28;837;-61
2021/07/03 09:23:21;;;;;;;;;;;;;;;29.53;34.78;99103.22;5071938;28;857;-60
2021/07/03 09:25:51;;;;;;;;;;;;;;;29.25;36.62;99093.25;5071877;28;818;-60
2021/07/03 09:28:19;;;;;;;;;;;;;;;29.36;36.14;99102.84;5072129;28;1507;-60
2021/07/03 09:30:50;;;;;;;;;;;;;;;29.41;35.30;99097.03;5072135;28;806;-60
2021/07/03 09:33:20;;;;;;;;;;;;;;;29.36;36.15;99102.84;5072056;28;830;-60
2021/07/03 09:35:56;;;;;;;;;;;;;;;29.50;36.88;99098.66;5071804;28;1979;-60
2021/07/03 09:38:30;;;;;;;;;;;;;;;29.62;35.50;99097.09;5071656;28;853;-60
2021/07/03 09:41:17;;;;;;;;;;;;;;;29.38;35.90;99085.97;5071766;28;854;-60
2021/07/03 09:43:50;;;;;;;;;;;;;;;29.42;38.24;99095.72;5071823;28;925;-60
2021/07/03 09:46:33;;;;;;;;;;;;;;;29.42;36.76;99092.09;5071750;28;877;-60
2021/07/03 09:49:04;;;;;;;;;;;;;;;29.03;35.89;99082.31;5071583;28;859;-60
2021/07/03 09:51:32;;;;;;;;;;;;;;;28.65;36.45;99086.13;5071511;28;921;-60
2021/07/03 09:53:59;;;;;;;;;;;;;;;28.39;36.93;99083.25;5071619;28;846;-60
2021/07/03 09:56:26;;;;;;;;;;;;;;;28.19;38.01;99076.13;5071424;28;1890;-60
2021/07/03 09:58:53;;;;;;;;;;;;;;;27.86;38.96;99076.13;5071519;28;830;-61
2021/07/03 10:01:19;;;;;;;;;;;;;;;27.69;39.16;99073.50;5071519;28;786;-60
2021/07/03 10:03:46;;;;;;;;;;;;;;;27.55;39.58;99083.28;5071488;28;834;-60
2021/07/03 10:06:19;;;;;;;;;;;;;;;27.56;40.50;99076.28;5071399;28;853;-61
2021/07/03 10:08:48;;;;;;;;;;;;;;;27.52;41.40;99069.41;5054882;28;2555;-60
2021/07/03 10:11:17;;;;;;;;;;;;;;;27.49;40.91;99068.41;5075705;28;870;-61
2021/07/03 10:13:45;;;;;;;;;;;;;;;27.77;41.00;99073.66;5075859;28;982;-61
2021/07/03 10:16:14;;;;;;;;;;;;;;;27.81;43.29;99082.63;5075362;28;1890;-60
2021/07/03 10:18:40;;;;;;;;;;;;;;;27.80;43.36;99078.28;5057508;28;868;-61
2021/07/03 10:21:16;;;;;;;;;;;;;;;27.94;41.37;99070.59;5075335;28;873;-61
2021/07/03 10:23:43;;;;;;;;;;;;;;;28.06;41.14;99074.03;5075375;28;861;-61
2021/07/03 10:26:11;;;;;;;;;;;;;;;28.17;42.37;99076.66;5075503;28;811;-61
2021/07/03 10:28:38;;;;;;;;;;;;;;;28.13;41.25;99072.63;5074982;28;1264;-60
2021/07/03 10:31:04;;;;;;;;;;;;;;;27.97;42.19;99077.25;5075490;28;952;-60
2021/07/03 10:33:40;;;;;;;;;;;;;;;27.76;41.20;99082.72;5075116;28;824;-61
2021/07/03 10:36:07;;;;;;;;;;;;;;;27.79;41.19;99073.88;5075093;28;1971;-61
2021/07/03 10:38:41;;;;;;;;;;;;;;;28.06;41.33;99083.28;5074904;28;818;-60
2021/07/03 10:41:10;;;;;;;;;;;;;;;28.20;41.20;99072.72;5075476;28;826;-61
2021/07/03 10:44:03;;;;;;;;;;;;;;;28.38;40.02;99082.50;5074879;28;867;-61
2021/07/03 10:46:33;;;;;;;;;;;;;;;27.39;39.65;99081.44;5072223;28;1236;-61
2021/07/03 10:49:00;;;;;;;;;;;;;;;27.13;41.03;99065.00;5074895;28;810;-61
2021/07/03 10:51:37;;;;;;;;;;;;;;;26.77;42.10;99070.84;5074719;28;897;-62
2021/07/03 10:54:27;;;;;;;;;;;;;;;26.54;40.79;99065.41;5075353;28;822;-61
2021/07/03 10:57:03;;;;;;;;;;;;;;;25.85;43.50;99070.13;5066989;28;1894;-62
2021/07/03 10:59:33;;;;;;;;;;;;;;;25.38;43.92;99070.19;5074670;28;845;-61
2021/07/03 11:02:07;;;;;;;;;;;;;;;25.78;45.38;99070.69;5074575;28;878;-62
2021/07/03 11:04:45;;;;;;;;;;;;;;;26.83;43.50;99057.41;5074819;28;877;-61
2021/07/03 11:07:12;;;;;;;;;;;;;;;27.62;42.18;99053.50;5074348;28;858;-61
2021/07/03 11:09:39;;;;;;;;;;;;;;;28.33;42.22;99048.50;5074404;28;857;-61
2021/07/03 11:12:13;;;;;;;;;;;;;;;28.79;40.51;99054.88;5074437;28;1014;-61
2021/07/03 11:14:47;;;;;;;;;;;;;;;28.59;38.24;99050.59;5074348;28;893;-61
2021/07/03 11:17:14;;;;;;;;;;;;;;;28.32;39.98;99058.34;5074284;28;1890;-61
2021/07/03 11:19:42;;;;;;;;;;;;;;;28.25;39.79;99054.03;5073887;28;822;-61
2021/07/03 11:22:10;;;;;;;;;;;;;;;28.37;38.68;99048.94;5074081;28;1059;-62
2021/07/03 11:24:43;;;;;;;;;;;;;;;28.43;38.75;99055.28;5056207;28;1299;-62
2021/07/03 11:27:10;;;;;;;;;;;;;;;28.61;40.30;99056.50;5074136;28;836;-61
2021/07/03 11:29:37;;;;;;;;;;;;;;;28.99;39.24;99050.59;5073946;28;1353;-61
2021/07/03 11:32:07;;;;;;;;;;;;;;;28.89;37.94;99053.09;5074050;28;842;-62
2021/07/03 11:34:35;;;;;;;;;;;;;;;29.19;38.42;99055.63;5073984;28;892;-62
2021/07/03 11:37:03;;;;;;;;;;;;;;;29.22;37.78;99050.91;5073750;28;1913;-62
2021/07/03 11:39:30;;;;;;;;;;;;;;;29.25;38.26;99059.13;5073982;28;893;-62
2021/07/03 11:42:00;;;;;;;;;;;;;;;29.26;38.53;99054.19;5073825;28;869;-61
2021/07/03 11:44:27;;;;;;;;;;;;;;;29.09;37.93;99055.31;5074236;28;794;-62
2021/07/03 11:46:53;;;;;;;;;;;;;;;28.97;37.51;99058.91;5073955;28;874;-62
2021/07/03 11:49:19;;;;;;;;;;;;;;;29.38;38.48;99052.63;5073791;28;853;-62
2021/07/03 11:51:46;;;;;;;;;;;;;;;29.89;37.85;99054.28;5073609;28;915;-62
2021/07/03 11:54:18;;;;;;;;;;;;;;;30.03;37.27;99049.28;5073662;28;1002;-61
2021/07/03 11:56:54;;;;;;;;;;;;;;;30.23;36.07;99056.28;5073623;28;1929;-62
2021/07/03 11:59:21;;;;;;;;;;;;;;;30.40;36.70;99050.16;5073527;28;854;-62
2021/07/03 12:01:49;;;;;;;;;;;;;;;29.90;34.87;99050.88;5073595;28;838;-62
2021/07/03 12:04:15;;;;;;;;;;;;;;;28.40;37.01;99036.47;5038868;28;1318;-62
2021/07/03 12:06:42;;;;;;;;;;;;;;;27.44;38.74;99038.81;5073353;28;807;-62
2021/07/03 12:09:12;;;;;;;;;;;;;;;27.49;39.94;99042.88;5073321;28;864;-61
2021/07/03 12:11:38;;;;;;;;;;;;;;;28.58;37.88;99032.78;5073404;28;842;-62
2021/07/03 12:14:13;;;;;;;;;;;;;;;29.74;37.18;99043.50;5073622;28;941;-62
2021/07/03 12:16:39;;;;;;;;;;;;;;;30.65;36.02;99031.31;5055390;28;1894;-62
2021/07/03 12:19:06;;;;;;;;;;;;;;;31.09;35.84;99034.22;5073272;28;838;-62
2021/07/03 12:21:35;;;;;;;;;;;;;;;31.01;36.21;99038.38;5073877;28;767;-63
2021/07/03 12:24:06;;;;;;;;;;;;;;;31.09;35.38;99033.47;5073039;28;853;-61
2021/07/03 12:26:33;;;;;;;;;;;;;;;31.18;35.06;99017.91;5073093;28;819;-62
2021/07/03 12:29:07;;;;;;;;;;;;;;;30.96;34.99;99020.09;5072897;28;1426;-62
2021/07/03 12:31:37;;;;;;;;;;;;;;;30.83;34.62;99012.41;5054512;28;1591;-62
2021/07/03 12:34:08;;;;;;;;;;;;;;;30.66;34.38;99024.31;5072521;28;899;-62
2021/07/03 12:36:34;;;;;;;;;;;;;;;30.49;33.31;99035.38;5072551;28;1922;-63
2021/07/03 12:39:11;;;;;;;;;;;;;;;30.69;35.58;99014.63;5054853;28;794;-62
2021/07/03 12:41:38;;;;;;;;;;;;;;;31.13;34.31;99020.34;5072852;28;786;-63
2021/07/03 12:44:05;;;;;;;;;;;;;;;31.30;34.69;99016.19;5072908;28;853;-62
2021/07/03 12:46:33;;;;;;;;;;;;;;;30.64;34.56;99012.69;5072602;28;873;-62
2021/07/03 12:49:00;;;;;;;;;;;;;;;29.90;34.84;99019.56;5072567;28;861;-61
2021/07/03 12:51:29;;;;;;;;;;;;;;;29.60;36.18;99022.09;5072596;28;917;-61
2021/07/03 12:54:00;;;;;;;;;;;;;;;30.20;35.57;99017.50;5072386;28;869;-62
2021/07/03 12:56:27;;;;;;;;;;;;;;;31.01;34.49;99007.00;5072398;28;1885;-62
2021/07/03 12:59:11;;;;;;;;;;;;;;;31.34;32.83;99002.31;5072351;28;845;-62
2021/07/03 13:01:38;;;;;;;;;;;;;;;31.31;33.40;99004.22;5072359;28;795;-63
2021/07/03 13:04:05;;;;;;;;;;;;;;;31.25;33.53;99005.72;5072253;28;896;-60
2021/07/03 13:06:32;;;;;;;;;;;;;;;31.31;32.93;99009.19;5054458;28;810;-62
2021/07/03 13:08:59;;;;;;;;;;;;;;;31.43;33.07;99007.53;5072166;28;869;-61
2021/07/03 13:11:28;;;;;;;;;;;;;;;31.22;33.41;98995.47;5072169;28;1022;-62
2021/07/03 13:13:57;;;;;;;;;;;;;;;31.10;33.82;98990.09;5072472;28;947;-62
2021/07/03 13:16:24;;;;;;;;;;;;;;;30.50;33.35;98994.94;5072284;28;1987;-61
2021/07/03 13:18:51;;;;;;;;;;;;;;;30.52;34.58;98992.28;5054288;28;841;-62
2021/07/03 13:21:17;;;;;;;;;;;;;;;30.36;34.13;98993.50;5072006;28;897;-61
2021/07/03 13:23:44;;;;;;;;;;;;;;;30.32;34.15;98993.09;5071893;28;913;-62
2021/07/03 13:26:11;;;;;;;;;;;;;;;30.18;34.98;98988.81;5071840;28;886;-62
2021/07/03 13:28:42;;;;;;;;;;;;;;;30.07;35.73;98989.88;5071826;28;1415;-62
2021/07/03 13:31:09;;;;;;;;;;;;;;;30.12;35.46;98980.41;5071725;28;910;-62
2021/07/03 13:33:36;;;;;;;;;;;;;;;30.03;36.09;98986.63;5071859;28;863;-61
2021/07/03 13:36:03;;;;;;;;;;;;;;;29.88;36.18;98987.25;5071543;28;1906;-62
2021/07/03 13:38:30;;;;;;;;;;;;;;;29.95;35.89;98989.41;5071797;28;834;-62
2021/07/03 13:40:57;;;;;;;;;;;;;;;29.86;34.44;98987.03;5053791;28;1211;-62